Time;durP1;ratioP1;P1;durP2;ratioP2;P2;SDS_P1;SDS_P2;PMS_P1;PMS_P2;Temp;Humidity;BMP_temperature;BMP_pressure;BME280_temperature;BME280_humidity;BME280_pressure;Samples;Min_cycle;Max_cycle;Signal;HPM_P1;HPM_P2
2023/03/25 00:00:12;;;;;;;5.30;2.97;;;;;;;;;;5064156;28;20259;-52
2023/03/25 00:02:39;;;;;;;4.97;2.20;;;;;;;;;;5068930;28;20233;-52
2023/03/25 00:05:06;;;;;;;3.37;2.43;;;;;;;;;;5073946;28;20241;-53
2023/03/25 00:07:33;;;;;;;4.77;2.30;;;;;;;;;;5065529;28;20232;-54
2023/03/25 00:10:00;;;;;;;1.80;1.70;;;;;;;;;;5066189;28;20771;-53
2023/03/25 00:12:27;;;;;;;3.67;2.13;;;;;;;;;;5066451;28;20246;-52
2023/03/25 00:14:54;;;;;;;4.10;2.40;;;;;;;;;;5078233;28;20246;-52
2023/03/25 00:17:21;;;;;;;2.17;1.97;;;;;;;;;;5062905;28;20235;-53
2023/03/25 00:19:49;;;;;;;1.80;1.63;;;;;;;;;;5067969;28;20250;-52
2023/03/25 00:22:15;;;;;;;2.40;2.20;;;;;;;;;;5057023;28;20240;-51
2023/03/25 00:24:42;;;;;;;3.50;2.00;;;;;;;;;;5059862;28;20230;-53
2023/03/25 00:27:09;;;;;;;6.23;2.43;;;;;;;;;;5064560;28;20323;-53
2023/03/25 00:29:36;;;;;;;3.33;1.90;;;;;;;;;;5064078;28;20234;-53
2023/03/25 00:32:02;;;;;;;1.47;1.37;;;;;;;;;;5064825;28;20235;-52
2023/03/25 00:34:28;;;;;;;2.20;1.87;;;;;;;;;;5058198;28;20262;-51
2023/03/25 00:36:55;;;;;;;2.47;1.80;;;;;;;;;;5062998;28;20227;-51
2023/03/25 00:39:21;;;;;;;4.67;2.00;;;;;;;;;;5063390;28;20239;-51
2023/03/25 00:41:48;;;;;;;4.53;1.93;;;;;;;;;;5056271;28;20232;-51
2023/03/25 00:44:16;;;;;;;2.87;2.10;;;;;;;;;;5059135;28;20928;-53
2023/03/25 00:46:44;;;;;;;4.87;1.40;;;;;;;;;;5063766;28;20223;-53
2023/03/25 00:49:11;;;;;;;2.47;1.87;;;;;;;;;;5064498;28;20235;-52
2023/03/25 00:51:37;;;;;;;4.13;2.10;;;;;;;;;;5066033;28;20239;-52
2023/03/25 00:54:04;;;;;;;3.53;1.60;;;;;;;;;;5065674;28;20646;-53
2023/03/25 00:56:30;;;;;;;2.83;1.70;;;;;;;;;;5065310;28;20812;-52
2023/03/25 00:58:57;;;;;;;4.47;1.63;;;;;;;;;;5059539;28;20231;-55
2023/03/25 01:01:27;;;;;;;2.27;1.57;;;;;;;;;;5061859;28;20238;-51
2023/03/25 01:03:56;;;;;;;3.13;1.87;;;;;;;;;;5065094;28;20246;-50
2023/03/25 01:06:27;;;;;;;2.23;1.63;;;;;;;;;;5055864;28;20592;-52
2023/03/25 01:08:54;;;;;;;1.90;1.70;;;;;;;;;;5063942;28;20235;-52
2023/03/25 01:11:22;;;;;;;2.93;1.43;;;;;;;;;;5062719;28;20243;-52
2023/03/25 01:13:48;;;;;;;4.47;1.90;;;;;;;;;;5060440;28;20231;-53
2023/03/25 01:16:15;;;;;;;3.70;1.47;;;;;;;;;;5057545;28;20232;-51
2023/03/25 01:18:43;;;;;;;3.23;2.60;;;;;;;;;;5058926;28;20716;-51
2023/03/25 01:21:10;;;;;;;4.37;1.97;;;;;;;;;;5071054;28;20971;-52
2023/03/25 01:23:36;;;;;;;1.80;1.53;;;;;;;;;;5071545;28;20233;-51
2023/03/25 01:26:02;;;;;;;2.23;1.30;;;;;;;;;;5064434;28;20231;-52
2023/03/25 01:28:29;;;;;;;2.20;2.00;;;;;;;;;;5060682;28;20223;-53
2023/03/25 01:31:00;;;;;;;1.77;1.67;;;;;;;;;;5058821;28;20238;-52
2023/03/25 01:33:27;;;;;;;4.23;1.50;;;;;;;;;;5061308;28;20243;-51
2023/03/25 01:35:55;;;;;;;2.33;1.33;;;;;;;;;;5060388;28;20245;-51
2023/03/25 01:38:22;;;;;;;2.30;1.40;;;;;;;;;;5058798;28;20321;-51
2023/03/25 01:40:50;;;;;;;3.47;1.50;;;;;;;;;;5059082;28;20231;-52
2023/03/25 01:43:17;;;;;;;2.50;1.67;;;;;;;;;;5059529;28;20239;-52
2023/03/25 01:45:44;;;;;;;3.37;1.57;;;;;;;;;;5061297;28;20227;-52
2023/03/25 01:48:12;;;;;;;1.60;1.33;;;;;;;;;;5056689;28;20330;-52
2023/03/25 01:50:40;;;;;;;3.73;1.77;;;;;;;;;;5058511;28;20235;-52
2023/03/25 01:53:09;;;;;;;1.30;1.20;;;;;;;;;;5062627;28;20243;-51
2023/03/25 01:55:35;;;;;;;2.07;1.87;;;;;;;;;;5058845;28;20293;-53
2023/03/25 01:58:03;;;;;;;3.00;1.87;;;;;;;;;;5062414;28;20262;-53
2023/03/25 02:00:30;;;;;;;4.37;1.73;;;;;;;;;;5058629;28;20234;-51
2023/03/25 02:02:59;;;;;;;2.00;1.53;;;;;;;;;;5057614;28;20322;-51
2023/03/25 02:05:29;;;;;;;2.70;1.83;;;;;;;;;;5052415;28;20230;-52
2023/03/25 02:07:57;;;;;;;2.17;1.67;;;;;;;;;;5058900;28;20235;-52
2023/03/25 02:10:25;;;;;;;4.87;2.00;;;;;;;;;;5062979;28;21820;-52
2023/03/25 02:12:52;;;;;;;3.17;1.60;;;;;;;;;;5067447;28;20254;-52
2023/03/25 02:15:19;;;;;;;1.30;1.20;;;;;;;;;;5084665;28;20227;-52
2023/03/25 02:17:54;;;;;;;2.70;1.23;;;;;;;;;;5073847;28;20242;-52
2023/03/25 02:20:39;;;;;;;5.87;1.83;;;;;;;;;;5082207;28;20238;-53
2023/03/25 02:23:13;;;;;;;4.33;1.70;;;;;;;;;;5064325;28;20611;-52
2023/03/25 02:25:49;;;;;;;4.87;1.70;;;;;;;;;;5064555;28;20357;-52
2023/03/25 02:28:24;;;;;;;2.03;1.77;;;;;;;;;;5062744;28;20254;-52
2023/03/25 02:31:00;;;;;;;1.87;1.33;;;;;;;;;;5063122;28;20226;-52
2023/03/25 02:33:44;;;;;;;4.20;1.57;;;;;;;;;;5064450;28;20838;-51
2023/03/25 02:36:33;;;;;;;1.60;1.30;;;;;;;;;;5061643;28;20580;-51
2023/03/25 02:39:03;;;;;;;6.17;1.63;;;;;;;;;;5058858;28;20314;-53
2023/03/25 02:41:34;;;;;;;3.03;1.60;;;;;;;;;;5061572;28;20228;-53
2023/03/25 02:44:03;;;;;;;1.33;1.23;;;;;;;;;;5059355;28;20227;-53
2023/03/25 02:46:31;;;;;;;2.27;1.50;;;;;;;;;;5063000;28;20269;-52
2023/03/25 02:48:59;;;;;;;2.47;1.20;;;;;;;;;;5065323;28;20258;-50
2023/03/25 02:51:28;;;;;;;2.13;1.27;;;;;;;;;;5062216;28;20239;-51
2023/03/25 02:53:57;;;;;;;2.00;1.63;;;;;;;;;;5064546;28;20230;-51
2023/03/25 02:56:25;;;;;;;2.37;1.70;;;;;;;;;;5064313;28;20284;-52
2023/03/25 02:58:54;;;;;;;3.27;1.40;;;;;;;;;;5064639;28;20231;-52
2023/03/25 03:01:21;;;;;;;2.03;1.60;;;;;;;;;;5057275;28;20235;-52
2023/03/25 03:03:48;;;;;;;3.13;1.60;;;;;;;;;;5064540;28;20330;-51
2023/03/25 03:06:17;;;;;;;3.87;1.97;;;;;;;;;;5059625;28;20258;-53
2023/03/25 03:08:54;;;;;;;2.13;1.73;;;;;;;;;;5066357;28;20258;-51
2023/03/25 03:11:23;;;;;;;1.70;1.53;;;;;;;;;;5059048;28;20238;-52
2023/03/25 03:13:59;;;;;;;3.23;1.60;;;;;;;;;;5057468;28;20239;-52
2023/03/25 03:16:32;;;;;;;1.60;1.50;;;;;;;;;;5069031;28;20265;-52
2023/03/25 03:19:02;;;;;;;2.67;2.47;;;;;;;;;;5059971;28;20348;-53
2023/03/25 03:21:33;;;;;;;4.27;1.57;;;;;;;;;;5062467;28;20235;-52
2023/03/25 03:24:02;;;;;;;4.57;1.80;;;;;;;;;;5066732;28;20231;-53
2023/03/25 03:26:33;;;;;;;2.17;1.40;;;;;;;;;;5068448;28;20238;-53
2023/03/25 03:29:07;;;;;;;4.67;1.77;;;;;;;;;;5058606;28;20234;-54
2023/03/25 03:31:37;;;;;;;5.30;1.90;;;;;;;;;;5059882;28;20406;-55
2023/03/25 03:34:09;;;;;;;1.67;1.47;;;;;;;;;;5066435;28;20251;-54
2023/03/25 03:36:38;;;;;;;6.20;2.23;;;;;;;;;;5058619;28;20686;-56
2023/03/25 03:39:08;;;;;;;2.37;1.83;;;;;;;;;;5055596;28;20232;-57
2023/03/25 03:41:36;;;;;;;3.50;1.67;;;;;;;;;;5059090;28;20717;-55
2023/03/25 03:44:06;;;;;;;5.50;2.37;;;;;;;;;;5062866;28;20238;-55
2023/03/25 03:46:34;;;;;;;1.73;1.57;;;;;;;;;;5066936;28;20634;-57
2023/03/25 03:49:03;;;;;;;4.63;1.93;;;;;;;;;;5064638;28;20305;-60
2023/03/25 03:51:31;;;;;;;4.77;2.20;;;;;;;;;;5064216;28;20231;-64
2023/03/25 03:53:59;;;;;;;2.13;1.90;;;;;;;;;;5062530;28;20652;-63
2023/03/25 03:56:27;;;;;;;2.10;1.53;;;;;;;;;;5062670;28;20288;-63
2023/03/25 03:58:58;;;;;;;3.40;2.03;;;;;;;;;;5063526;28;20235;-62
2023/03/25 04:01:33;;;;;;;3.17;2.03;;;;;;;;;;5063629;28;21455;-62
2023/03/25 04:04:02;;;;;;;3.70;1.70;;;;;;;;;;5060523;28;20649;-63
2023/03/25 04:06:34;;;;;;;5.27;2.00;;;;;;;;;;5063182;28;20292;-63
2023/03/25 04:09:03;;;;;;;4.83;1.57;;;;;;;;;;5064087;28;20717;-63
2023/03/25 04:11:32;;;;;;;1.70;1.50;;;;;;;;;;5056608;28;20235;-62
2023/03/25 04:14:00;;;;;;;3.23;1.57;;;;;;;;;;5058226;28;20238;-62
2023/03/25 04:16:28;;;;;;;3.70;2.23;;;;;;;;;;5060699;28;20242;-63
2023/03/25 04:18:57;;;;;;;3.80;2.23;;;;;;;;;;5060563;28;20278;-59
2023/03/25 04:21:24;;;;;;;2.73;2.07;;;;;;;;;;5060334;28;20235;-59
2023/03/25 04:23:51;;;;;;;3.03;1.70;;;;;;;;;;5056164;28;20309;-56
2023/03/25 04:26:17;;;;;;;3.90;1.80;;;;;;;;;;5057396;28;20232;-56
2023/03/25 04:28:44;;;;;;;3.43;2.57;;;;;;;;;;5054350;28;20298;-55
2023/03/25 04:31:14;;;;;;;4.93;1.80;;;;;;;;;;5060160;28;20293;-55
2023/03/25 04:33:45;;;;;;;3.10;1.93;;;;;;;;;;5061270;28;20308;-53
2023/03/25 04:36:13;;;;;;;3.07;1.60;;;;;;;;;;5062152;28;20234;-53
2023/03/25 04:38:39;;;;;;;2.93;2.53;;;;;;;;;;5061416;28;20250;-53
2023/03/25 04:41:06;;;;;;;3.43;1.80;;;;;;;;;;5061904;28;20314;-55
2023/03/25 04:43:33;;;;;;;4.67;1.50;;;;;;;;;;5060211;28;20246;-54
2023/03/25 04:45:59;;;;;;;1.83;1.30;;;;;;;;;;5063978;28;20620;-52
2023/03/25 04:48:28;;;;;;;1.87;1.63;;;;;;;;;;5063255;28;20237;-52
2023/03/25 04:50:57;;;;;;;3.93;1.77;;;;;;;;;;5062037;28;20239;-52
2023/03/25 04:53:24;;;;;;;3.00;1.60;;;;;;;;;;5068622;28;20250;-53
2023/03/25 04:55:50;;;;;;;4.57;2.20;;;;;;;;;;5069140;28;20234;-53
2023/03/25 04:58:17;;;;;;;5.30;1.30;;;;;;;;;;5069632;28;20259;-52
2023/03/25 05:00:45;;;;;;;3.00;1.37;;;;;;;;;;5062241;28;20441;-53
2023/03/25 05:03:12;;;;;;;5.13;2.03;;;;;;;;;;5074903;28;20250;-56
2023/03/25 05:05:38;;;;;;;1.67;1.20;;;;;;;;;;5064134;28;20235;-54
2023/03/25 05:08:07;;;;;;;4.10;1.47;;;;;;;;;;5062308;28;20255;-53
2023/03/25 05:10:35;;;;;;;1.80;1.50;;;;;;;;;;5063817;28;20231;-52
2023/03/25 05:13:02;;;;;;;1.47;1.20;;;;;;;;;;5059540;28;20239;-53
2023/03/25 05:15:29;;;;;;;2.30;1.67;;;;;;;;;;5068578;28;20235;-52
2023/03/25 05:17:55;;;;;;;4.50;1.47;;;;;;;;;;5048311;28;20235;-52
2023/03/25 05:20:23;;;;;;;0.80;0.80;;;;;;;;;;5057419;28;20239;-52
2023/03/25 05:22:52;;;;;;;2.73;1.03;;;;;;;;;;5063460;28;20315;-52
2023/03/25 05:25:21;;;;;;;4.83;1.67;;;;;;;;;;5063733;28;20722;-52
2023/03/25 05:27:48;;;;;;;3.43;1.20;;;;;;;;;;5066237;28;20227;-53
2023/03/25 05:30:15;;;;;;;1.83;1.10;;;;;;;;;;5065954;28;20247;-51
2023/03/25 05:32:44;;;;;;;1.90;1.47;;;;;;;;;;5064904;28;20231;-51
2023/03/25 05:35:28;;;;;;;3.57;1.57;;;;;;;;;;5061161;28;20232;-52
2023/03/25 05:37:56;;;;;;;2.33;1.40;;;;;;;;;;5065479;28;20259;-52
2023/03/25 05:40:25;;;;;;;1.60;1.20;;;;;;;;;;5064979;28;20314;-53
2023/03/25 05:42:53;;;;;;;2.43;1.23;;;;;;;;;;5060535;28;20235;-51
2023/03/25 05:45:20;;;;;;;2.93;1.80;;;;;;;;;;5066469;28;20264;-52
2023/03/25 05:47:46;;;;;;;1.70;1.23;;;;;;;;;;5060895;28;20237;-51
2023/03/25 05:50:14;;;;;;;1.10;0.90;;;;;;;;;;5060932;28;20288;-51
2023/03/25 05:52:41;;;;;;;1.43;1.03;;;;;;;;;;5061560;28;20757;-52
2023/03/25 05:55:10;;;;;;;3.03;1.10;;;;;;;;;;5064222;28;20321;-52
2023/03/25 05:57:38;;;;;;;1.20;0.97;;;;;;;;;;5061040;28;20261;-52
2023/03/25 06:00:06;;;;;;;1.70;0.80;;;;;;;;;;5059014;28;20304;-52
2023/03/25 06:02:34;;;;;;;1.27;0.90;;;;;;;;;;5062858;28;20253;-51
2023/03/25 06:05:00;;;;;;;4.97;0.90;;;;;;;;;;5064891;28;20227;-52
2023/03/25 06:07:27;;;;;;;2.97;0.70;;;;;;;;;;5064301;28;20667;-52
2023/03/25 06:09:54;;;;;;;1.23;0.93;;;;;;;;;;5066312;28;20227;-52
2023/03/25 06:12:21;;;;;;;1.63;0.80;;;;;;;;;;5068536;28;22096;-52
2023/03/25 06:14:52;;;;;;;1.40;0.80;;;;;;;;;;5072617;28;20227;-50
2023/03/25 06:17:20;;;;;;;2.13;1.17;;;;;;;;;;5069767;28;20337;-50
2023/03/25 06:19:47;;;;;;;1.97;0.97;;;;;;;;;;5063909;28;20254;-51
2023/03/25 06:22:14;;;;;;;0.83;0.67;;;;;;;;;;5064966;28;20297;-52
2023/03/25 06:24:41;;;;;;;2.30;0.87;;;;;;;;;;5065879;28;20223;-51
2023/03/25 06:27:09;;;;;;;0.63;0.60;;;;;;;;;;5059806;28;20238;-52
2023/03/25 06:29:36;;;;;;;2.00;0.93;;;;;;;;;;5062891;28;20277;-52
2023/03/25 06:32:05;;;;;;;1.10;0.77;;;;;;;;;;5065409;28;20652;-52
2023/03/25 06:34:32;;;;;;;2.03;0.73;;;;;;;;;;5065249;28;20284;-52
2023/03/25 06:36:59;;;;;;;1.13;0.80;;;;;;;;;;5057104;28;20241;-51
2023/03/25 06:39:26;;;;;;;1.77;0.60;;;;;;;;;;5063243;28;20239;-51
2023/03/25 06:41:52;;;;;;;3.30;1.07;;;;;;;;;;5061205;28;20258;-51
2023/03/25 06:44:19;;;;;;;2.17;0.70;;;;;;;;;;5057570;28;20231;-53
2023/03/25 06:46:45;;;;;;;4.40;1.33;;;;;;;;;;5073801;28;20259;-52
2023/03/25 06:49:13;;;;;;;2.70;1.57;;;;;;;;;;5065242;28;20776;-54
2023/03/25 06:51:40;;;;;;;1.37;0.77;;;;;;;;;;5064969;28;20878;-50
2023/03/25 06:54:06;;;;;;;0.77;0.73;;;;;;;;;;5062360;28;20235;-52
2023/03/25 06:56:33;;;;;;;1.00;0.67;;;;;;;;;;5065703;28;20235;-52
2023/03/25 06:58:59;;;;;;;2.10;0.80;;;;;;;;;;5065610;28;20239;-52
2023/03/25 07:01:26;;;;;;;1.90;0.67;;;;;;;;;;5062175;28;20258;-52
2023/03/25 07:03:53;;;;;;;1.77;1.07;;;;;;;;;;5065319;28;20428;-52
2023/03/25 07:06:22;;;;;;;2.53;0.73;;;;;;;;;;5050867;28;20236;-51
2023/03/25 07:08:48;;;;;;;0.80;0.57;;;;;;;;;;5057562;28;20227;-53
2023/03/25 07:11:16;;;;;;;1.73;1.47;;;;;;;;;;5065220;28;20316;-52
2023/03/25 07:13:42;;;;;;;0.60;0.60;;;;;;;;;;5060558;28;20230;-52
2023/03/25 07:16:10;;;;;;;0.60;0.60;;;;;;;;;;5073273;28;20251;-51
2023/03/25 07:18:36;;;;;;;0.70;0.53;;;;;;;;;;5059737;28;20255;-52
2023/03/25 07:21:03;;;;;;;0.70;0.70;;;;;;;;;;5057249;28;20237;-53
2023/03/25 07:23:31;;;;;;;2.60;0.80;;;;;;;;;;5063202;28;20259;-51
2023/03/25 07:25:57;;;;;;;2.07;0.70;;;;;;;;;;5078060;28;20230;-51
2023/03/25 07:28:24;;;;;;;1.23;0.70;;;;;;;;;;5074950;28;20453;-52
2023/03/25 07:30:50;;;;;;;0.90;0.70;;;;;;;;;;5062839;28;20223;-53
2023/03/25 07:33:17;;;;;;;1.53;0.80;;;;;;;;;;5061503;28;20232;-51
2023/03/25 07:35:43;;;;;;;1.57;0.80;;;;;;;;;;5063714;28;20227;-51
2023/03/25 07:38:10;;;;;;;2.73;0.90;;;;;;;;;;5066276;28;20261;-52
2023/03/25 07:40:38;;;;;;;1.67;1.03;;;;;;;;;;5066530;28;20236;-51
2023/03/25 07:43:05;;;;;;;1.07;0.67;;;;;;;;;;5064483;28;20231;-52
2023/03/25 07:45:31;;;;;;;4.20;0.90;;;;;;;;;;5062774;28;20811;-52
2023/03/25 07:48:00;;;;;;;2.27;1.13;;;;;;;;;;5066109;28;20249;-51
2023/03/25 07:50:26;;;;;;;3.57;0.90;;;;;;;;;;5064331;28;20741;-51
2023/03/25 07:52:53;;;;;;;1.30;1.20;;;;;;;;;;5062825;28;20239;-52
2023/03/25 07:55:19;;;;;;;1.50;0.70;;;;;;;;;;5062757;28;20235;-51
2023/03/25 07:57:47;;;;;;;2.67;1.17;;;;;;;;;;5059636;28;20231;-52
2023/03/25 08:00:14;;;;;;;1.23;0.87;;;;;;;;;;5067217;28;20667;-53
2023/03/25 08:02:41;;;;;;;2.20;1.33;;;;;;;;;;5056649;28;20235;-52
2023/03/25 08:05:07;;;;;;;0.77;0.73;;;;;;;;;;5061715;28;20798;-52
2023/03/25 08:07:34;;;;;;;1.60;1.10;;;;;;;;;;5075681;28;20295;-53
2023/03/25 08:10:01;;;;;;;3.60;0.83;;;;;;;;;;5064505;28;20277;-53
2023/03/25 08:12:28;;;;;;;2.30;1.00;;;;;;;;;;5068807;28;20234;-52
2023/03/25 08:14:56;;;;;;;1.13;0.73;;;;;;;;;;5065956;28;20254;-58
2023/03/25 08:17:23;;;;;;;2.97;0.93;;;;;;;;;;5068308;28;20717;-55
2023/03/25 08:19:49;;;;;;;0.77;0.77;;;;;;;;;;5064418;28;20223;-52
2023/03/25 08:22:16;;;;;;;3.40;0.80;;;;;;;;;;5068036;28;20239;-52
2023/03/25 08:24:42;;;;;;;2.80;1.10;;;;;;;;;;5074466;28;20669;-53
2023/03/25 08:27:08;;;;;;;1.07;0.80;;;;;;;;;;5068080;28;20306;-53
2023/03/25 08:29:35;;;;;;;4.43;1.03;;;;;;;;;;5069108;28;20226;-54
2023/03/25 08:32:03;;;;;;;3.37;1.73;;;;;;;;;;5069336;28;20227;-51
2023/03/25 08:34:33;;;;;;;2.07;0.80;;;;;;;;;;5067645;28;20256;-59
2023/03/25 08:36:59;;;;;;;3.43;1.00;;;;;;;;;;5069922;28;20234;-63
2023/03/25 08:39:28;;;;;;;1.70;0.90;;;;;;;;;;5067269;28;20239;-53
2023/03/25 08:41:56;;;;;;;1.02;0.63;;;;;;;;;;5077939;28;20261;-57
2023/03/25 08:44:22;;;;;;;2.55;0.80;;;;;;;;;;5068947;28;20239;-53
2023/03/25 08:46:48;;;;;;;2.72;0.90;;;;;;;;;;5071904;28;20671;-52
2023/03/25 08:49:16;;;;;;;1.75;0.60;;;;;;;;;;5065110;28;20227;-52
2023/03/25 08:51:43;;;;;;;2.07;0.50;;;;;;;;;;5071080;28;20246;-53
2023/03/25 08:54:09;;;;;;;1.02;0.90;;;;;;;;;;5070936;28;20454;-54
2023/03/25 08:56:35;;;;;;;1.87;0.63;;;;;;;;;;5074574;28;20289;-56
2023/03/25 08:59:02;;;;;;;2.95;0.60;;;;;;;;;;5072449;28;20255;-54
2023/03/25 09:01:28;;;;;;;1.50;0.60;;;;;;;;;;5071970;28;20234;-52
2023/03/25 09:03:56;;;;;;;1.25;0.52;;;;;;;;;;5064604;28;20255;-56
2023/03/25 09:06:24;;;;;;;2.30;1.07;;;;;;;;;;5064929;28;20293;-54
2023/03/25 09:08:51;;;;;;;1.88;0.70;;;;;;;;;;5074384;28;20227;-52
2023/03/25 09:11:17;;;;;;;1.70;0.70;;;;;;;;;;5072203;28;20237;-55
2023/03/25 09:13:44;;;;;;;1.35;0.90;;;;;;;;;;5068544;28;20233;-52
2023/03/25 09:16:10;;;;;;;1.63;0.50;;;;;;;;;;5067372;28;20563;-51
2023/03/25 09:18:36;;;;;;;1.70;0.55;;;;;;;;;;5067196;28;20223;-51
2023/03/25 09:21:03;;;;;;;0.77;0.52;;;;;;;;;;5067429;28;20239;-52
2023/03/25 09:23:31;;;;;;;0.70;0.70;;;;;;;;;;5069090;28;20235;-52
2023/03/25 09:26:00;;;;;;;0.52;0.52;;;;;;;;;;5064345;28;20289;-51
2023/03/25 09:28:26;;;;;;;2.40;0.80;;;;;;;;;;5068688;28;20246;-52
2023/03/25 09:30:53;;;;;;;1.10;0.50;;;;;;;;;;5076435;28;20334;-51
2023/03/25 09:33:20;;;;;;;1.83;0.93;;;;;;;;;;5063745;28;20314;-51
2023/03/25 09:35:47;;;;;;;0.93;0.80;;;;;;;;;;5060119;28;20232;-51
2023/03/25 09:38:13;;;;;;;0.67;0.67;;;;;;;;;;5058548;28;20250;-53
2023/03/25 09:40:42;;;;;;;1.20;0.97;;;;;;;;;;5071022;28;20253;-54
2023/03/25 09:43:21;;;;;;;2.70;0.80;;;;;;;;;;5061944;28;20265;-52
2023/03/25 09:45:48;;;;;;;1.83;0.83;;;;;;;;;;5056642;28;20321;-52
2023/03/25 09:48:22;;;;;;;3.40;1.13;;;;;;;;;;5062464;28;20238;-52
2023/03/25 09:50:48;;;;;;;2.43;0.90;;;;;;;;;;5061597;28;20227;-55
2023/03/25 09:53:20;;;;;;;1.87;1.20;;;;;;;;;;5064910;28;20344;-52
2023/03/25 09:55:48;;;;;;;0.65;0.60;;;;;;;;;;5061034;28;20258;-52
2023/03/25 09:58:23;;;;;;;3.58;2.13;;;;;;;;;;5067430;28;20241;-52
2023/03/25 10:00:52;;;;;;;0.88;0.73;;;;;;;;;;5061127;28;20253;-55
2023/03/25 10:03:21;;;;;;;1.02;0.80;;;;;;;;;;5061486;28;20235;-51
2023/03/25 10:06:02;;;;;;;0.98;0.50;;;;;;;;;;5069542;28;20238;-52
2023/03/25 10:08:34;;;;;;;1.52;0.90;;;;;;;;;;5061038;28;20338;-52
2023/03/25 10:11:04;;;;;;;1.27;0.73;;;;;;;;;;5066895;28;20235;-52
2023/03/25 10:13:36;;;;;;;3.10;0.80;;;;;;;;;;5065355;28;20265;-54
2023/03/25 10:16:08;;;;;;;0.88;0.85;;;;;;;;;;5063972;28;20315;-53
2023/03/25 10:18:39;;;;;;;1.47;0.80;;;;;;;;;;5064520;28;20743;-52
2023/03/25 10:21:08;;;;;;;0.80;0.63;;;;;;;;;;5074091;28;20273;-52
2023/03/25 10:23:37;;;;;;;1.90;0.83;;;;;;;;;;5071540;28;20250;-52
2023/03/25 10:26:09;;;;;;;1.02;0.40;;;;;;;;;;5076764;28;20295;-52
2023/03/25 10:28:38;;;;;;;1.02;0.80;;;;;;;;;;5076802;28;20234;-52
2023/03/25 10:31:06;;;;;;;2.58;0.60;;;;;;;;;;5068042;28;20318;-52
2023/03/25 10:33:36;;;;;;;2.58;0.90;;;;;;;;;;5062880;28;20238;-52
2023/03/25 10:36:03;;;;;;;1.88;0.60;;;;;;;;;;5064798;28;20231;-51
2023/03/25 10:38:32;;;;;;;1.92;0.60;;;;;;;;;;5072160;28;20235;-52
2023/03/25 10:41:05;;;;;;;1.38;0.50;;;;;;;;;;5063559;28;20231;-51
2023/03/25 10:43:34;;;;;;;1.10;0.50;;;;;;;;;;5066597;28;20231;-52
2023/03/25 10:46:04;;;;;;;1.00;0.90;;;;;;;;;;5067593;28;20318;-52
2023/03/25 10:48:31;;;;;;;2.00;0.75;;;;;;;;;;5065956;28;20293;-52
2023/03/25 10:51:02;;;;;;;2.88;0.95;;;;;;;;;;5066563;28;20310;-52
2023/03/25 10:53:29;;;;;;;1.50;0.70;;;;;;;;;;5060669;28;20235;-51
2023/03/25 10:55:58;;;;;;;3.25;1.80;;;;;;;;;;5063766;28;20227;-52
2023/03/25 10:58:25;;;;;;;0.80;0.70;;;;;;;;;;5064667;28;20238;-51
2023/03/25 11:00:53;;;;;;;1.48;0.70;;;;;;;;;;5059999;28;20698;-52
2023/03/25 11:03:21;;;;;;;1.35;0.75;;;;;;;;;;5066407;28;20246;-53
2023/03/25 11:05:48;;;;;;;2.42;0.50;;;;;;;;;;5062907;28;20682;-52
2023/03/25 11:08:15;;;;;;;2.90;1.00;;;;;;;;;;5062182;28;20231;-52
2023/03/25 11:10:47;;;;;;;0.68;0.68;;;;;;;;;;5064682;28;20223;-51
2023/03/25 11:13:15;;;;;;;2.63;1.00;;;;;;;;;;5067016;28;20231;-52
2023/03/25 11:15:42;;;;;;;1.63;0.68;;;;;;;;;;5066899;28;20230;-51
2023/03/25 11:18:21;;;;;;;1.15;0.68;;;;;;;;;;5062978;28;20238;-53
2023/03/25 11:20:49;;;;;;;1.30;0.70;;;;;;;;;;5061878;28;20231;-52
2023/03/25 11:23:21;;;;;;;2.13;0.57;;;;;;;;;;5062667;28;20238;-51
2023/03/25 11:25:47;;;;;;;2.00;0.85;;;;;;;;;;5065047;28;20666;-51
2023/03/25 11:28:17;;;;;;;0.85;0.70;;;;;;;;;;5066178;28;20235;-51
2023/03/25 11:31:02;;;;;;;0.85;0.60;;;;;;;;;;5064458;28;20301;-52
2023/03/25 11:33:30;;;;;;;0.47;0.47;;;;;;;;;;5062719;28;20326;-52
2023/03/25 11:36:09;;;;;;;0.60;0.52;;;;;;;;;;5066153;28;20261;-52
2023/03/25 11:38:37;;;;;;;0.43;0.43;;;;;;;;;;5064284;28;20238;-53
2023/03/25 11:41:05;;;;;;;2.30;0.70;;;;;;;;;;5060582;28;20230;-52
2023/03/25 11:43:35;;;;;;;1.63;0.80;;;;;;;;;;5065305;28;20266;-51
2023/03/25 11:46:07;;;;;;;2.53;1.23;;;;;;;;;;5061876;28;20314;-52
2023/03/25 11:48:37;;;;;;;0.60;0.60;;;;;;;;;;5066818;28;20227;-53
2023/03/25 11:51:05;;;;;;;0.77;0.60;;;;;;;;;;5063195;28;20289;-52
2023/03/25 11:53:32;;;;;;;1.47;0.93;;;;;;;;;;5064458;28;20879;-51
2023/03/25 11:56:00;;;;;;;1.60;1.00;;;;;;;;;;5058614;28;20238;-53
2023/03/25 11:58:29;;;;;;;0.60;0.60;;;;;;;;;;5058624;28;20251;-52
2023/03/25 12:01:02;;;;;;;3.00;2.00;;;;;;;;;;5068343;28;20306;-52
2023/03/25 12:03:30;;;;;;;2.53;1.03;;;;;;;;;;5063887;28;20294;-53
2023/03/25 12:05:59;;;;;;;0.83;0.80;;;;;;;;;;5063091;28;20669;-53
2023/03/25 12:08:28;;;;;;;0.57;0.57;;;;;;;;;;5061274;28;20847;-51
2023/03/25 12:10:57;;;;;;;1.17;0.80;;;;;;;;;;5070198;28;20253;-52
2023/03/25 12:13:29;;;;;;;0.93;0.80;;;;;;;;;;5064075;28;20661;-52
2023/03/25 12:16:01;;;;;;;1.20;1.00;;;;;;;;;;5067196;28;20232;-51
2023/03/25 12:18:49;;;;;;;0.93;0.70;;;;;;;;;;5071281;28;20247;-52
2023/03/25 12:21:22;;;;;;;1.58;0.77;;;;;;;;;;5060190;28;20231;-51
2023/03/25 12:23:52;;;;;;;0.70;0.70;;;;;;;;;;5068368;28;20270;-53
2023/03/25 12:26:21;;;;;;;2.15;0.80;;;;;;;;;;5074088;28;20321;-58
2023/03/25 12:29:06;;;;;;;2.88;0.80;;;;;;;;;;5070114;28;20232;-52
2023/03/25 12:31:39;;;;;;;0.82;0.70;;;;;;;;;;5070209;28;20311;-52
2023/03/25 12:34:08;;;;;;;0.65;0.60;;;;;;;;;;5068658;28;20261;-54
2023/03/25 12:36:43;;;;;;;0.77;0.50;;;;;;;;;;5051008;28;20326;-51
2023/03/25 12:39:16;;;;;;;0.70;0.35;;;;;;;;;;5060397;28;20638;-52
2023/03/25 12:41:44;;;;;;;1.17;0.57;;;;;;;;;;5065668;28;20667;-52
2023/03/25 12:44:14;;;;;;;1.63;0.50;;;;;;;;;;5058665;28;20346;-52
2023/03/25 12:46:55;;;;;;;0.70;0.55;;;;;;;;;;5065329;28;20227;-52
2023/03/25 12:49:29;;;;;;;1.00;0.55;;;;;;;;;;5059429;28;20758;-53
2023/03/25 12:52:02;;;;;;;0.60;0.60;;;;;;;;;;5062318;28;20229;-52
2023/03/25 12:54:34;;;;;;;0.60;0.55;;;;;;;;;;5064165;28;20241;-52
2023/03/25 12:57:09;;;;;;;2.17;0.50;;;;;;;;;;5060081;28;20231;-53
2023/03/25 12:59:47;;;;;;;0.50;0.50;;;;;;;;;;5060006;28;20731;-52
2023/03/25 13:02:25;;;;;;;2.83;1.83;;;;;;;;;;5063409;28;20235;-51
2023/03/25 13:05:06;;;;;;;1.52;0.90;;;;;;;;;;5070275;28;20227;-52
2023/03/25 13:07:36;;;;;;;1.27;0.73;;;;;;;;;;5069879;28;20317;-52
2023/03/25 13:10:05;;;;;;;1.10;0.60;;;;;;;;;;5069374;28;20231;-51
2023/03/25 13:12:33;;;;;;;4.97;0.93;;;;;;;;;;5069077;28;20239;-56
2023/03/25 13:15:04;;;;;;;0.50;0.50;;;;;;;;;;5071799;28;20249;-56
2023/03/25 13:17:32;;;;;;;0.73;0.73;;;;;;;;;;5062670;28;20237;-60
2023/03/25 13:20:00;;;;;;;1.27;0.80;;;;;;;;;;5061133;28;20318;-54
2023/03/25 13:22:28;;;;;;;1.43;0.70;;;;;;;;;;5063350;28;20230;-53
2023/03/25 13:24:57;;;;;;;0.67;0.63;;;;;;;;;;5067068;28;20732;-54
2023/03/25 13:27:24;;;;;;;1.50;0.60;;;;;;;;;;5064661;28;20227;-54
2023/03/25 13:29:52;;;;;;;0.60;0.60;;;;;;;;;;5058397;28;20322;-57
2023/03/25 13:32:20;;;;;;;0.50;0.50;;;;;;;;;;5059125;28;20233;-56
2023/03/25 13:34:50;;;;;;;0.53;0.53;;;;;;;;;;5062264;28;20321;-56
2023/03/25 13:37:19;;;;;;;1.13;0.80;;;;;;;;;;5064270;28;20371;-56
2023/03/25 13:39:50;;;;;;;0.60;0.60;;;;;;;;;;5062661;28;21040;-61
2023/03/25 13:42:22;;;;;;;0.97;0.87;;;;;;;;;;5063132;28;20239;-57
2023/03/25 13:44:51;;;;;;;0.47;0.47;;;;;;;;;;5059018;28;20228;-60
2023/03/25 13:47:19;;;;;;;0.87;0.70;;;;;;;;;;5059084;28;20249;-61
2023/03/25 13:49:49;;;;;;;2.20;0.50;;;;;;;;;;5063497;28;20231;-62
2023/03/25 13:52:16;;;;;;;1.07;0.70;;;;;;;;;;5061737;28;20778;-65
2023/03/25 13:54:45;;;;;;;0.47;0.47;;;;;;;;;;5063642;28;20227;-63
2023/03/25 13:57:18;;;;;;;1.37;0.60;;;;;;;;;;5066950;28;20245;-61
2023/03/25 14:00:04;;;;;;;2.10;0.63;;;;;;;;;;5066323;28;20233;-59
2023/03/25 14:02:39;;;;;;;0.37;0.37;;;;;;;;;;5066162;28;21221;-57
2023/03/25 14:05:28;;;;;;;0.77;0.53;;;;;;;;;;5063580;28;20258;-55
2023/03/25 14:08:06;;;;;;;1.20;0.70;;;;;;;;;;5061060;28;20219;-53
2023/03/25 14:10:50;;;;;;;0.60;0.60;;;;;;;;;;5065299;28;20257;-53
2023/03/25 14:13:18;;;;;;;0.47;0.47;;;;;;;;;;5072391;28;20243;-54
2023/03/25 14:15:51;;;;;;;0.53;0.53;;;;;;;;;;5064188;28;20230;-53
2023/03/25 14:18:18;;;;;;;0.70;0.70;;;;;;;;;;5064933;28;20269;-53
2023/03/25 14:20:44;;;;;;;1.00;0.43;;;;;;;;;;5058307;28;20239;-54
2023/03/25 14:23:13;;;;;;;0.67;0.67;;;;;;;;;;5068123;28;20239;-53
2023/03/25 14:25:41;;;;;;;0.77;0.77;;;;;;;;;;5072244;28;20231;-53
2023/03/25 14:28:08;;;;;;;1.40;0.70;;;;;;;;;;5062636;28;20235;-53
2023/03/25 14:30:34;;;;;;;0.53;0.53;;;;;;;;;;5066608;28;20227;-53
2023/03/25 14:33:03;;;;;;;2.20;0.70;;;;;;;;;;5065415;28;20239;-53
2023/03/25 14:35:50;;;;;;;1.03;0.70;;;;;;;;;;5065732;28;20227;-53
2023/03/25 14:38:46;;;;;;;0.97;0.57;;;;;;;;;;5069061;28;20238;-53
2023/03/25 14:41:13;;;;;;;4.33;0.73;;;;;;;;;;5067624;28;20235;-52
2023/03/25 14:43:45;;;;;;;1.50;0.60;;;;;;;;;;5068622;28;20272;-53
2023/03/25 14:46:17;;;;;;;0.90;0.80;;;;;;;;;;5066761;28;20761;-53
2023/03/25 14:48:49;;;;;;;1.63;1.00;;;;;;;;;;5059938;28;20226;-52
2023/03/25 14:51:20;;;;;;;1.80;0.73;;;;;;;;;;5068422;28;20281;-53
2023/03/25 14:53:51;;;;;;;0.90;0.70;;;;;;;;;;5061881;28;20252;-53